Terminal Aerodrome Forecast
Issued by NWS

Home | Current Version | Previous Version | Graphics & Text | Print | Product List | Glossary On
Versions: 1 2 3 4 5 6 7 8 9 10 11 12 13 14 15 16 17 18 19 20 21 22 23 24 25 26 27
483
FTUS43 KICT 251523 AAB
TAFRSL
TAF AMD
KRSL 251523Z 2515/2612 35014G20KT P6SM BKN007
      TEMPO 2515/2516 BKN004
     FM251800 35013KT P6SM SCT015 BKN025
     FM260000 04006KT P6SM SCT030=

USA.gov is the U.S. government's official web portal to all federal, state and local government web resources and services.